Time;durP1;ratioP1;P1;durP2;ratioP2;P2;SDS_P1;SDS_P2;PMS_P1;PMS_P2;Temp;Humidity;BMP_temperature;BMP_pressure;BME280_temperature;BME280_humidity;BME280_pressure;Samples;Min_cycle;Max_cycle;Signal;HPM_P1;HPM_P2
2022/04/30 00:00:37;;;;;;;14.18;6.85;;;;;;;;;;5019389;28;20087;-62
2022/04/30 00:03:03;;;;;;;15.48;7.43;;;;;;;;;;5015072;28;20030;-62
2022/04/30 00:05:31;;;;;;;16.55;7.20;;;;;;;;;;5024249;28;20034;-62
2022/04/30 00:07:57;;;;;;;15.02;7.50;;;;;;;;;;5026957;28;20049;-62
2022/04/30 00:10:23;;;;;;;15.13;7.10;;;;;;;;;;5013860;28;20041;-62
2022/04/30 00:12:49;;;;;;;16.10;7.80;;;;;;;;;;5018717;28;20092;-63
2022/04/30 00:15:15;;;;;;;14.25;7.60;;;;;;;;;;5023597;28;20030;-62
2022/04/30 00:17:41;;;;;;;15.30;7.80;;;;;;;;;;5018503;28;20130;-62
2022/04/30 00:20:08;;;;;;;14.20;8.10;;;;;;;;;;5014132;28;20491;-62
2022/04/30 00:22:34;;;;;;;11.60;7.65;;;;;;;;;;5013994;28;20072;-62
2022/04/30 00:25:00;;;;;;;15.23;7.30;;;;;;;;;;5011803;28;20129;-62
2022/04/30 00:27:26;;;;;;;17.52;8.00;;;;;;;;;;5013861;28;20129;-62
2022/04/30 00:29:53;;;;;;;12.52;7.70;;;;;;;;;;5013789;28;20030;-62
2022/04/30 00:32:19;;;;;;;13.60;8.07;;;;;;;;;;5013111;28;20051;-62
2022/04/30 00:34:45;;;;;;;14.93;7.60;;;;;;;;;;5027373;28;20037;-62
2022/04/30 00:37:11;;;;;;;17.25;8.00;;;;;;;;;;5021180;28;20057;-62
2022/04/30 00:39:37;;;;;;;15.02;8.10;;;;;;;;;;5018460;28;20455;-62
2022/04/30 00:42:04;;;;;;;18.77;9.10;;;;;;;;;;5024190;28;20052;-62
2022/04/30 00:44:29;;;;;;;16.70;8.05;;;;;;;;;;5013794;28;20046;-62
2022/04/30 00:46:55;;;;;;;19.02;8.18;;;;;;;;;;5012758;28;20459;-62
2022/04/30 00:49:21;;;;;;;15.63;8.40;;;;;;;;;;5013275;28;20037;-62
2022/04/30 00:51:49;;;;;;;16.55;8.63;;;;;;;;;;5011601;28;20538;-62
2022/04/30 00:54:18;;;;;;;20.77;9.38;;;;;;;;;;5029382;28;20044;-62
2022/04/30 00:56:57;;;;;;;18.38;8.50;;;;;;;;;;5016297;28;20044;-62
2022/04/30 00:59:24;;;;;;;16.80;8.57;;;;;;;;;;5022157;28;20080;-61
2022/04/30 01:01:50;;;;;;;14.15;8.60;;;;;;;;;;5026906;28;20057;-62
2022/04/30 01:04:18;;;;;;;18.10;8.60;;;;;;;;;;5009559;28;20038;-62
2022/04/30 01:06:52;;;;;;;17.27;8.68;;;;;;;;;;5033040;28;20483;-62
2022/04/30 01:09:20;;;;;;;13.85;9.00;;;;;;;;;;5019293;28;20076;-62
2022/04/30 01:11:47;;;;;;;20.98;10.20;;;;;;;;;;5008536;28;20111;-62
2022/04/30 01:14:13;;;;;;;16.23;8.60;;;;;;;;;;5010449;28;20052;-63
2022/04/30 01:16:40;;;;;;;15.38;8.55;;;;;;;;;;5012478;28;20044;-62
2022/04/30 01:19:07;;;;;;;17.05;8.38;;;;;;;;;;4994812;28;20507;-62
2022/04/30 01:21:34;;;;;;;14.85;8.77;;;;;;;;;;5012275;28;20542;-62
2022/04/30 01:24:01;;;;;;;19.75;9.15;;;;;;;;;;5009390;28;20057;-62
2022/04/30 01:26:27;;;;;;;17.75;8.82;;;;;;;;;;5012384;28;20128;-62
2022/04/30 01:28:54;;;;;;;13.32;8.88;;;;;;;;;;5008104;28;20045;-62
2022/04/30 01:39:34;;;;;;;18.67;9.60;;;;;;;;;;5040230;28;20049;-59
2022/04/30 01:42:06;;;;;;;17.00;9.00;;;;;;;;;;5031302;28;20120;-59
2022/04/30 01:44:32;;;;;;;18.42;9.77;;;;;;;;;;5014748;28;20041;-59
2022/04/30 01:46:58;;;;;;;16.83;9.80;;;;;;;;;;5031646;28;20082;-59
2022/04/30 01:49:24;;;;;;;17.77;9.73;;;;;;;;;;5030492;28;20037;-59
2022/04/30 01:51:50;;;;;;;16.65;9.15;;;;;;;;;;5026528;28;20505;-59
2022/04/30 01:54:16;;;;;;;18.33;9.85;;;;;;;;;;5032441;28;20044;-59
2022/04/30 01:56:42;;;;;;;16.65;9.82;;;;;;;;;;5051601;28;20089;-60
2022/04/30 01:59:08;;;;;;;15.07;9.43;;;;;;;;;;5030606;28;20466;-59
2022/04/30 02:01:35;;;;;;;18.73;10.35;;;;;;;;;;5028575;28;20487;-59
2022/04/30 02:04:02;;;;;;;21.33;9.73;;;;;;;;;;5028796;28;20426;-59
2022/04/30 02:06:29;;;;;;;15.90;8.73;;;;;;;;;;5022081;28;20041;-59
2022/04/30 02:08:55;;;;;;;15.43;9.00;;;;;;;;;;5031162;28;20041;-59
2022/04/30 02:11:21;;;;;;;16.52;9.30;;;;;;;;;;5031103;28;20034;-59
2022/04/30 02:13:52;;;;;;;16.90;8.90;;;;;;;;;;5032237;28;20041;-59
2022/04/30 02:16:20;;;;;;;15.15;9.40;;;;;;;;;;5019908;28;20124;-59
2022/04/30 02:18:47;;;;;;;18.13;9.35;;;;;;;;;;5041978;28;20036;-59
2022/04/30 02:21:14;;;;;;;14.55;8.77;;;;;;;;;;5030854;28;20402;-59
2022/04/30 02:23:40;;;;;;;14.60;8.73;;;;;;;;;;5033507;28;20072;-59
2022/04/30 02:26:06;;;;;;;15.32;8.82;;;;;;;;;;5038389;28;20073;-59
2022/04/30 02:28:32;;;;;;;17.17;8.82;;;;;;;;;;5032267;28;20041;-59
2022/04/30 02:30:58;;;;;;;15.32;8.57;;;;;;;;;;5026417;28;20091;-59
2022/04/30 02:33:24;;;;;;;12.52;8.02;;;;;;;;;;5011565;28;20124;-59
2022/04/30 02:35:50;;;;;;;14.20;8.07;;;;;;;;;;5028465;28;20034;-59
2022/04/30 02:38:16;;;;;;;14.07;8.63;;;;;;;;;;5031225;28;20040;-59
2022/04/30 02:40:42;;;;;;;15.43;8.30;;;;;;;;;;5041025;28;20410;-59
2022/04/30 02:43:10;;;;;;;17.45;9.00;;;;;;;;;;5028519;28;20139;-59
2022/04/30 02:45:37;;;;;;;13.38;7.80;;;;;;;;;;5033977;28;20040;-59
2022/04/30 02:48:06;;;;;;;15.57;8.20;;;;;;;;;;5011850;28;20053;-59
2022/04/30 02:50:33;;;;;;;16.05;8.15;;;;;;;;;;5024833;28;20117;-59
2022/04/30 02:52:59;;;;;;;16.67;8.68;;;;;;;;;;5028975;28;20041;-59
2022/04/30 02:55:25;;;;;;;14.55;8.93;;;;;;;;;;5038254;28;20412;-59
2022/04/30 03:00:47;;;;;;;17.83;9.00;;;;;;;;;;5029362;28;20049;-59
2022/04/30 03:03:13;;;;;;;12.80;8.10;;;;;;;;;;5030265;28;20029;-59
2022/04/30 03:05:40;;;;;;;14.50;8.65;;;;;;;;;;5036886;28;20133;-59
2022/04/30 03:08:13;;;;;;;15.75;8.10;;;;;;;;;;5036351;28;20041;-60
2022/04/30 03:10:44;;;;;;;14.35;8.50;;;;;;;;;;5034892;28;20045;-59
2022/04/30 03:13:10;;;;;;;17.43;8.43;;;;;;;;;;5053849;28;20051;-59
2022/04/30 03:15:38;;;;;;;14.93;8.65;;;;;;;;;;5030549;28;20037;-59
2022/04/30 03:23:24;;;;;;;13.20;8.65;;;;;;;;;;5032366;28;20044;-59
2022/04/30 03:25:50;;;;;;;15.45;8.25;;;;;;;;;;5033858;28;20159;-59
2022/04/30 03:28:16;;;;;;;15.80;8.82;;;;;;;;;;5032061;28;20172;-59
2022/04/30 03:30:42;;;;;;;15.85;8.55;;;;;;;;;;5028805;28;20041;-59
2022/04/30 03:33:08;;;;;;;12.55;8.07;;;;;;;;;;5038013;28;20041;-59
2022/04/30 03:35:35;;;;;;;14.10;8.45;;;;;;;;;;5043044;28;20391;-59
2022/04/30 03:38:01;;;;;;;13.45;8.65;;;;;;;;;;5053151;28;20511;-59
2022/04/30 03:40:27;;;;;;;14.43;8.32;;;;;;;;;;5018319;28;20046;-59
2022/04/30 03:42:54;;;;;;;12.18;7.68;;;;;;;;;;5032500;28;20033;-59
2022/04/30 03:45:20;;;;;;;15.52;8.52;;;;;;;;;;5035096;28;20041;-59
2022/04/30 03:47:46;;;;;;;15.88;7.93;;;;;;;;;;5037361;28;20553;-59
2022/04/30 03:50:12;;;;;;;16.30;9.15;;;;;;;;;;5030594;28;20076;-59
2022/04/30 03:52:38;;;;;;;16.80;8.90;;;;;;;;;;5026215;28;20057;-59
2022/04/30 03:55:05;;;;;;;11.48;7.68;;;;;;;;;;5035985;28;20033;-59
2022/04/30 03:57:31;;;;;;;15.23;8.65;;;;;;;;;;5039967;28;20029;-59
2022/04/30 03:59:57;;;;;;;14.13;7.95;;;;;;;;;;5032939;28;20040;-59
2022/04/30 04:02:23;;;;;;;15.40;8.27;;;;;;;;;;5032545;28;20041;-59
2022/04/30 04:04:51;;;;;;;10.75;7.05;;;;;;;;;;5032058;28;20029;-59
2022/04/30 04:07:17;;;;;;;9.68;6.32;;;;;;;;;;5031579;28;20570;-59
2022/04/30 04:09:43;;;;;;;10.65;7.00;;;;;;;;;;5038078;28;20491;-59
2022/04/30 04:12:09;;;;;;;15.38;7.85;;;;;;;;;;5033490;28;20046;-59
2022/04/30 04:17:39;;;;;;;11.45;7.72;;;;;;;;;;5037663;28;20069;-59
2022/04/30 04:20:08;;;;;;;17.00;8.00;;;;;;;;;;5050918;28;20410;-59
2022/04/30 04:22:35;;;;;;;14.35;8.32;;;;;;;;;;5039241;28;20033;-59
2022/04/30 04:27:46;;;;;;;15.18;8.45;;;;;;;;;;5041492;28;20045;-59
2022/04/30 04:30:12;;;;;;;14.80;9.38;;;;;;;;;;5039728;28;20108;-59
2022/04/30 04:32:38;;;;;;;17.10;8.95;;;;;;;;;;5035737;28;20121;-59
2022/04/30 04:35:04;;;;;;;12.60;8.18;;;;;;;;;;5014944;28;20112;-59
2022/04/30 04:37:31;;;;;;;14.98;8.30;;;;;;;;;;5036017;28;20446;-59
2022/04/30 04:39:58;;;;;;;14.15;8.93;;;;;;;;;;5030337;28;20454;-59
2022/04/30 04:42:24;;;;;;;14.35;8.25;;;;;;;;;;5032691;28;20033;-60
2022/04/30 04:44:50;;;;;;;18.38;9.35;;;;;;;;;;5035998;28;20034;-59
2022/04/30 04:47:16;;;;;;;16.40;9.50;;;;;;;;;;5020587;28;20056;-59
2022/04/30 04:49:43;;;;;;;15.98;9.32;;;;;;;;;;5032779;28;20037;-59
2022/04/30 04:52:10;;;;;;;13.60;8.40;;;;;;;;;;5031652;28;20053;-59
2022/04/30 04:54:36;;;;;;;14.13;8.07;;;;;;;;;;5035321;28;20044;-59
2022/04/30 04:57:02;;;;;;;13.90;8.75;;;;;;;;;;5041381;28;20041;-59
2022/04/30 04:59:28;;;;;;;14.00;9.02;;;;;;;;;;5032464;28;20091;-59
2022/04/30 05:01:54;;;;;;;16.05;9.10;;;;;;;;;;5035276;28;20034;-59
2022/04/30 05:04:20;;;;;;;16.00;9.32;;;;;;;;;;5032144;28;20037;-59
2022/04/30 05:06:48;;;;;;;17.58;9.68;;;;;;;;;;5032981;28;20045;-59
2022/04/30 05:09:14;;;;;;;14.75;9.23;;;;;;;;;;5037251;28;20044;-59
2022/04/30 05:11:40;;;;;;;13.90;8.63;;;;;;;;;;5040481;28;20066;-59
2022/04/30 05:14:06;;;;;;;15.25;9.70;;;;;;;;;;5034695;28;20037;-59
2022/04/30 05:16:32;;;;;;;12.70;8.93;;;;;;;;;;5029674;28;20301;-59
2022/04/30 05:18:58;;;;;;;16.08;8.73;;;;;;;;;;5029900;28;20099;-59
2022/04/30 05:21:25;;;;;;;18.38;8.88;;;;;;;;;;5030999;28;20033;-59
2022/04/30 05:23:51;;;;;;;14.98;9.48;;;;;;;;;;5034008;28;20118;-59
2022/04/30 05:26:17;;;;;;;15.43;9.15;;;;;;;;;;5035846;28;20033;-59
2022/04/30 05:28:43;;;;;;;14.93;9.35;;;;;;;;;;5046746;28;20036;-59
2022/04/30 05:31:09;;;;;;;16.90;9.25;;;;;;;;;;5042748;28;20415;-59
2022/04/30 05:33:35;;;;;;;17.00;10.38;;;;;;;;;;5027435;28;20103;-59
2022/04/30 05:36:02;;;;;;;17.70;10.23;;;;;;;;;;5030675;28;20683;-59
2022/04/30 05:38:28;;;;;;;21.33;10.57;;;;;;;;;;5047243;28;20033;-59
2022/04/30 05:40:54;;;;;;;17.90;10.52;;;;;;;;;;5053590;28;20094;-59
2022/04/30 05:43:20;;;;;;;17.73;10.68;;;;;;;;;;5025444;28;20041;-60
2022/04/30 05:45:46;;;;;;;20.08;11.00;;;;;;;;;;5031723;28;20076;-60
2022/04/30 05:48:12;;;;;;;18.10;10.45;;;;;;;;;;5030531;28;20037;-60
2022/04/30 05:50:38;;;;;;;17.83;10.05;;;;;;;;;;5031563;28;20063;-60
2022/04/30 05:53:05;;;;;;;17.48;10.05;;;;;;;;;;5037779;28;20574;-59
2022/04/30 05:55:31;;;;;;;18.83;10.52;;;;;;;;;;5005824;28;20048;-60
2022/04/30 05:57:57;;;;;;;17.75;10.27;;;;;;;;;;5032114;28;20069;-60
2022/04/30 06:00:23;;;;;;;18.60;9.80;;;;;;;;;;5039137;28;20048;-60
2022/04/30 06:02:49;;;;;;;17.92;10.63;;;;;;;;;;5026290;28;20045;-60
2022/04/30 06:05:15;;;;;;;17.48;10.23;;;;;;;;;;5029457;28;20139;-60
2022/04/30 06:07:41;;;;;;;21.23;10.07;;;;;;;;;;5029791;28;20137;-60
2022/04/30 06:10:08;;;;;;;15.23;10.63;;;;;;;;;;5030858;28;20037;-60
2022/04/30 06:12:34;;;;;;;15.60;8.95;;;;;;;;;;5025444;28;20037;-60
2022/04/30 06:15:00;;;;;;;15.30;9.35;;;;;;;;;;5026028;28;20037;-60
2022/04/30 06:17:26;;;;;;;15.45;9.60;;;;;;;;;;5037838;28;20426;-59
2022/04/30 06:19:52;;;;;;;12.15;8.45;;;;;;;;;;5031279;28;20041;-59
2022/04/30 06:22:18;;;;;;;13.82;9.10;;;;;;;;;;5022429;28;20038;-59
2022/04/30 06:24:45;;;;;;;13.32;8.50;;;;;;;;;;5026045;28;20483;-60
2022/04/30 06:27:11;;;;;;;15.95;8.65;;;;;;;;;;5027712;28;20037;-59
2022/04/30 06:29:38;;;;;;;13.80;8.98;;;;;;;;;;5029298;28;20122;-59
2022/04/30 06:32:05;;;;;;;15.13;8.52;;;;;;;;;;5031131;28;20048;-59
2022/04/30 06:34:31;;;;;;;16.50;8.75;;;;;;;;;;5043744;28;20044;-59
2022/04/30 06:36:57;;;;;;;14.00;8.15;;;;;;;;;;5038796;28;20061;-59
2022/04/30 06:39:23;;;;;;;14.95;8.40;;;;;;;;;;5026386;28;20049;-60
2022/04/30 06:41:49;;;;;;;12.82;8.15;;;;;;;;;;5027869;28;20061;-60
2022/04/30 06:44:15;;;;;;;13.07;8.73;;;;;;;;;;5034249;28;20037;-60
2022/04/30 06:46:41;;;;;;;15.68;7.97;;;;;;;;;;5034363;28;20554;-60
2022/04/30 06:49:07;;;;;;;11.45;8.07;;;;;;;;;;5035359;28;20120;-60
2022/04/30 06:51:33;;;;;;;12.20;8.10;;;;;;;;;;5036128;28;20033;-60
2022/04/30 06:59:31;;;;;;;11.52;6.85;;;;;;;;;;5026650;28;20042;-60
2022/04/30 07:02:01;;;;;;;10.63;6.97;;;;;;;;;;5025334;28;20121;-61
2022/04/30 07:04:28;;;;;;;12.80;6.78;;;;;;;;;;5031073;28;20041;-60
2022/04/30 07:06:54;;;;;;;10.65;7.20;;;;;;;;;;5038655;28;20113;-60
2022/04/30 07:09:20;;;;;;;14.55;8.05;;;;;;;;;;5026611;28;20057;-60
2022/04/30 07:11:46;;;;;;;12.98;8.00;;;;;;;;;;5036732;28;20395;-60
2022/04/30 07:14:12;;;;;;;14.57;8.10;;;;;;;;;;5024393;28;20037;-60
2022/04/30 07:16:38;;;;;;;15.68;7.88;;;;;;;;;;5029123;28;20033;-60
2022/04/30 07:19:05;;;;;;;14.27;7.78;;;;;;;;;;5027047;28;20069;-60
2022/04/30 07:21:31;;;;;;;16.05;8.75;;;;;;;;;;5034738;28;20041;-60
2022/04/30 07:24:00;;;;;;;17.00;8.90;;;;;;;;;;5050718;28;20051;-59
2022/04/30 07:26:26;;;;;;;12.07;7.38;;;;;;;;;;5020113;28;20385;-60
2022/04/30 07:28:52;;;;;;;11.65;6.70;;;;;;;;;;5016765;28;20498;-60
2022/04/30 07:31:19;;;;;;;10.00;5.68;;;;;;;;;;5055687;22;20059;-63
2022/04/30 07:33:46;;;;;;;9.30;6.47;;;;;;;;;;5049873;28;20119;-63
2022/04/30 07:36:13;;;;;;;10.55;5.85;;;;;;;;;;5045499;28;20037;-63
2022/04/30 07:38:39;;;;;;;10.35;5.20;;;;;;;;;;5043067;28;20379;-63
2022/04/30 07:41:05;;;;;;;10.38;4.90;;;;;;;;;;5042962;28;20042;-63
2022/04/30 07:43:31;;;;;;;11.52;6.13;;;;;;;;;;5049900;28;20560;-63
2022/04/30 07:45:57;;;;;;;9.60;6.13;;;;;;;;;;5046733;28;20117;-63
2022/04/30 07:48:23;;;;;;;9.48;5.45;;;;;;;;;;5043567;28;20045;-63
2022/04/30 07:50:49;;;;;;;10.68;6.68;;;;;;;;;;5041306;28;20411;-63
2022/04/30 07:53:16;;;;;;;10.85;7.00;;;;;;;;;;5049173;28;20074;-63
2022/04/30 07:55:45;;;;;;;11.20;6.63;;;;;;;;;;5048935;28;20047;-63
2022/04/30 07:58:11;;;;;;;10.80;7.15;;;;;;;;;;5051836;28;20041;-63
2022/04/30 08:00:37;;;;;;;12.82;7.00;;;;;;;;;;5048522;28;20042;-64
2022/04/30 08:03:06;;;;;;;14.60;7.60;;;;;;;;;;5047452;28;20044;-63
2022/04/30 08:05:32;;;;;;;15.25;7.55;;;;;;;;;;5052550;28;20029;-63
2022/04/30 08:07:58;;;;;;;12.32;7.38;;;;;;;;;;5045259;28;20152;-63
2022/04/30 08:10:24;;;;;;;12.52;7.35;;;;;;;;;;5044436;28;20034;-63
2022/04/30 08:12:57;;;;;;;13.57;7.60;;;;;;;;;;5045506;28;20040;-63
2022/04/30 08:15:23;;;;;;;11.05;7.50;;;;;;;;;;5052288;28;20040;-63
2022/04/30 08:17:49;;;;;;;11.13;7.05;;;;;;;;;;5051289;28;20091;-63
2022/04/30 08:20:15;;;;;;;10.25;6.90;;;;;;;;;;5049396;28;20057;-63
2022/04/30 08:22:41;;;;;;;11.30;7.45;;;;;;;;;;5049329;28;20064;-63
2022/04/30 08:25:08;;;;;;;10.10;7.00;;;;;;;;;;5044633;28;20084;-63
2022/04/30 08:27:35;;;;;;;8.63;5.80;;;;;;;;;;5035120;28;20038;-63
2022/04/30 08:30:01;;;;;;;9.18;6.50;;;;;;;;;;5049064;28;20068;-63
2022/04/30 08:32:27;;;;;;;9.68;6.20;;;;;;;;;;5050140;28;20072;-62
2022/04/30 08:34:53;;;;;;;9.45;5.70;;;;;;;;;;5044308;28;20525;-62
2022/04/30 08:37:19;;;;;;;11.27;6.07;;;;;;;;;;5042003;28;20056;-63
2022/04/30 08:39:46;;;;;;;12.32;6.80;;;;;;;;;;5039454;28;20037;-63
2022/04/30 08:42:15;;;;;;;8.80;5.78;;;;;;;;;;5052293;28;20098;-63
2022/04/30 08:44:41;;;;;;;8.82;6.35;;;;;;;;;;5053347;28;20041;-63
2022/04/30 08:47:10;;;;;;;9.10;6.72;;;;;;;;;;5051218;28;20098;-63
2022/04/30 08:49:38;;;;;;;11.63;6.50;;;;;;;;;;5049542;28;20131;-63
2022/04/30 08:52:04;;;;;;;10.13;6.03;;;;;;;;;;5050745;28;20041;-63
2022/04/30 08:54:30;;;;;;;8.40;5.32;;;;;;;;;;5052513;28;20398;-63
2022/04/30 08:56:56;;;;;;;16.55;6.47;;;;;;;;;;5052512;28;20040;-63
2022/04/30 08:59:23;;;;;;;10.50;5.40;;;;;;;;;;5051335;28;20037;-63
2022/04/30 09:01:50;;;;;;;7.50;3.88;;;;;;;;;;5047137;28;20115;-63
2022/04/30 09:04:17;;;;;;;7.70;4.50;;;;;;;;;;5044504;28;20041;-63
2022/04/30 09:06:44;;;;;;;6.88;4.20;;;;;;;;;;5048998;28;20043;-63
2022/04/30 09:09:10;;;;;;;6.57;3.85;;;;;;;;;;5046728;28;20510;-63
2022/04/30 09:11:38;;;;;;;6.45;4.15;;;;;;;;;;5052979;28;20037;-63
2022/04/30 09:14:04;;;;;;;8.23;4.47;;;;;;;;;;5052090;28;20040;-63
2022/04/30 09:16:30;;;;;;;6.53;4.80;;;;;;;;;;5050970;28;20051;-63
2022/04/30 09:19:01;;;;;;;14.40;5.13;;;;;;;;;;5049064;28;20168;-63
2022/04/30 09:21:27;;;;;;;7.75;4.18;;;;;;;;;;5049753;28;20040;-63
2022/04/30 09:24:02;;;;;;;7.60;4.68;;;;;;;;;;5048106;28;20041;-63
2022/04/30 09:26:38;;;;;;;8.15;4.95;;;;;;;;;;5039560;28;20068;-63
2022/04/30 09:29:09;;;;;;;6.32;4.50;;;;;;;;;;5038538;28;20487;-63
2022/04/30 09:31:35;;;;;;;11.27;5.72;;;;;;;;;;5039324;28;20041;-63
2022/04/30 09:37:41;;;;;;;11.07;5.88;;;;;;;;;;5050432;28;20037;-63
2022/04/30 09:39:34;;;;;;;10.23;5.00;;;;;;;;;;5050104;28;20409;-63
2022/04/30 09:42:01;;;;;;;9.38;5.47;;;;;;;;;;5050131;28;20040;-63
2022/04/30 09:44:28;;;;;;;10.45;6.00;;;;;;;;;;5052667;28;20033;-63
2022/04/30 09:46:55;;;;;;;12.48;5.88;;;;;;;;;;5050397;28;20037;-63
2022/04/30 09:54:52;;;;;;;8.48;5.47;;;;;;;;;;5043430;28;20044;-63
2022/04/30 09:57:18;;;;;;;8.00;5.78;;;;;;;;;;5049185;28;20039;-63
2022/04/30 09:59:47;;;;;;;10.68;5.88;;;;;;;;;;5043213;28;20153;-63
2022/04/30 10:02:16;;;;;;;9.68;5.18;;;;;;;;;;5031742;28;20056;-63
2022/04/30 10:04:44;;;;;;;7.93;5.00;;;;;;;;;;5049586;28;20041;-63
2022/04/30 10:07:10;;;;;;;5.80;4.47;;;;;;;;;;5049516;28;20494;-63
2022/04/30 10:09:38;;;;;;;8.27;4.78;;;;;;;;;;5054007;28;20038;-63
2022/04/30 10:12:16;;;;;;;8.10;4.97;;;;;;;;;;5042647;28;20048;-63
2022/04/30 10:14:47;;;;;;;9.82;5.30;;;;;;;;;;5048166;28;20135;-63
2022/04/30 10:17:16;;;;;;;8.18;5.53;;;;;;;;;;5049754;28;20119;-63
2022/04/30 10:19:43;;;;;;;11.15;5.00;;;;;;;;;;5047419;28;20514;-63
2022/04/30 10:22:16;;;;;;;8.57;4.90;;;;;;;;;;5046475;28;20033;-63
2022/04/30 10:24:53;;;;;;;7.00;4.22;;;;;;;;;;5051195;28;20032;-63
2022/04/30 10:27:19;;;;;;;5.93;3.97;;;;;;;;;;5051378;28;20124;-63
2022/04/30 10:29:53;;;;;;;6.22;4.10;;;;;;;;;;5051656;28;20060;-63
2022/04/30 10:32:26;;;;;;;6.30;3.95;;;;;;;;;;5047683;28;20053;-63
2022/04/30 10:34:55;;;;;;;4.88;3.75;;;;;;;;;;5039993;28;20037;-63
2022/04/30 10:37:31;;;;;;;4.38;3.83;;;;;;;;;;5040284;28;20449;-64
2022/04/30 10:40:01;;;;;;;7.82;3.80;;;;;;;;;;5041857;28;20110;-63
2022/04/30 10:42:30;;;;;;;6.18;4.15;;;;;;;;;;5050994;28;20044;-63
2022/04/30 10:44:56;;;;;;;7.85;4.13;;;;;;;;;;5050268;28;20094;-63
2022/04/30 10:47:22;;;;;;;7.45;4.10;;;;;;;;;;5046557;28;20032;-63
2022/04/30 10:49:49;;;;;;;5.30;4.05;;;;;;;;;;5044476;28;20041;-64
2022/04/30 10:52:21;;;;;;;6.60;3.63;;;;;;;;;;5047548;28;20545;-63
2022/04/30 10:54:48;;;;;;;5.07;3.50;;;;;;;;;;5049050;28;20056;-63
2022/04/30 10:57:14;;;;;;;6.63;3.70;;;;;;;;;;5051003;28;20040;-63
2022/04/30 10:59:40;;;;;;;7.18;4.00;;;;;;;;;;5051041;28;20048;-63
2022/04/30 11:02:06;;;;;;;7.13;3.65;;;;;;;;;;5046372;28;20033;-63
2022/04/30 11:04:32;;;;;;;7.70;3.83;;;;;;;;;;5042701;28;20064;-64
2022/04/30 11:06:59;;;;;;;6.43;3.60;;;;;;;;;;5042724;28;20076;-63
2022/04/30 11:09:25;;;;;;;6.72;4.22;;;;;;;;;;5031571;28;20137;-64
2022/04/30 11:11:51;;;;;;;6.85;4.15;;;;;;;;;;5033743;28;20116;-63
2022/04/30 11:14:19;;;;;;;6.88;3.63;;;;;;;;;;5048734;28;20037;-63
2022/04/30 11:16:46;;;;;;;5.82;3.78;;;;;;;;;;5038693;28;20495;-63
2022/04/30 11:19:13;;;;;;;5.93;3.70;;;;;;;;;;5045911;28;20033;-63
2022/04/30 11:21:42;;;;;;;4.65;3.42;;;;;;;;;;5043449;28;20039;-63
2022/04/30 11:24:09;;;;;;;5.65;3.55;;;;;;;;;;5031629;28;20065;-64
2022/04/30 11:26:39;;;;;;;5.03;3.67;;;;;;;;;;5048517;28;20041;-64
2022/04/30 11:29:12;;;;;;;6.45;3.90;;;;;;;;;;5045326;28;20049;-64
2022/04/30 11:31:38;;;;;;;5.47;3.85;;;;;;;;;;5049558;28;20451;-63
2022/04/30 11:34:08;;;;;;;6.78;3.95;;;;;;;;;;5052077;28;20044;-63
2022/04/30 11:36:41;;;;;;;8.48;3.80;;;;;;;;;;5047090;28;20486;-63
2022/04/30 11:39:07;;;;;;;5.97;4.10;;;;;;;;;;5054750;28;20047;-64
2022/04/30 11:41:38;;;;;;;10.77;4.78;;;;;;;;;;5054996;28;20044;-63
2022/04/30 11:44:04;;;;;;;7.38;4.32;;;;;;;;;;5045359;28;20037;-63
2022/04/30 11:46:30;;;;;;;7.50;4.60;;;;;;;;;;5034138;28;20398;-63
2022/04/30 11:48:56;;;;;;;9.20;4.28;;;;;;;;;;5043782;28;20045;-63
2022/04/30 11:51:22;;;;;;;10.63;4.47;;;;;;;;;;5050779;28;20044;-63
2022/04/30 11:53:48;;;;;;;6.20;4.43;;;;;;;;;;5054455;28;20029;-63
2022/04/30 11:56:14;;;;;;;8.85;4.25;;;;;;;;;;5051707;28;20041;-63
2022/04/30 11:58:41;;;;;;;12.18;4.68;;;;;;;;;;5042222;28;20041;-63
2022/04/30 12:01:18;;;;;;;6.63;4.15;;;;;;;;;;5051937;28;20396;-63
2022/04/30 12:03:44;;;;;;;9.23;4.25;;;;;;;;;;5053242;28;20494;-63
2022/04/30 12:06:10;;;;;;;6.60;4.35;;;;;;;;;;5046133;28;20095;-63
2022/04/30 12:08:36;;;;;;;12.77;4.15;;;;;;;;;;5054360;28;20052;-63
2022/04/30 12:11:02;;;;;;;6.45;3.92;;;;;;;;;;5053737;28;20041;-63
2022/04/30 12:13:28;;;;;;;6.50;4.07;;;;;;;;;;5047416;28;20076;-63
2022/04/30 12:16:04;;;;;;;7.10;4.10;;;;;;;;;;5040224;28;20064;-63
2022/04/30 12:26:58;;;;;;;7.65;5.38;;;;;;;;;;5047855;28;20041;-63
2022/04/30 12:29:24;;;;;;;6.10;4.30;;;;;;;;;;5048141;28;20049;-63
2022/04/30 12:31:53;;;;;;;7.50;4.57;;;;;;;;;;5036468;28;20060;-64
2022/04/30 12:34:22;;;;;;;6.07;4.13;;;;;;;;;;5048586;28;20102;-63
2022/04/30 12:36:52;;;;;;;8.07;4.80;;;;;;;;;;5052062;28;20040;-63
2022/04/30 12:39:22;;;;;;;9.35;4.88;;;;;;;;;;5042137;28;20052;-63
2022/04/30 12:41:48;;;;;;;11.73;5.22;;;;;;;;;;5053352;28;20037;-63
2022/04/30 12:44:15;;;;;;;10.60;4.78;;;;;;;;;;5053260;28;20441;-63
2022/04/30 12:46:45;;;;;;;7.47;4.50;;;;;;;;;;5048941;28;20120;-63
2022/04/30 12:49:12;;;;;;;8.88;4.68;;;;;;;;;;5049946;28;20064;-63
2022/04/30 12:51:38;;;;;;;8.23;5.07;;;;;;;;;;5047339;28;20041;-63
2022/04/30 12:54:05;;;;;;;9.30;5.15;;;;;;;;;;5049312;28;20119;-63
2022/04/30 12:56:31;;;;;;;6.75;4.50;;;;;;;;;;5036977;28;20085;-63
2022/04/30 12:58:58;;;;;;;8.30;5.10;;;;;;;;;;5047105;28;20048;-63
2022/04/30 13:01:24;;;;;;;7.93;4.55;;;;;;;;;;5044451;28;20044;-63
2022/04/30 13:03:50;;;;;;;8.80;4.60;;;;;;;;;;5044083;28;20059;-63
2022/04/30 13:06:17;;;;;;;7.25;4.72;;;;;;;;;;5049603;28;20032;-63
2022/04/30 13:14:13;;;;;;;8.27;5.13;;;;;;;;;;5037241;28;20038;-63
2022/04/30 13:16:39;;;;;;;5.35;4.57;;;;;;;;;;5049711;28;20041;-61
2022/04/30 13:19:05;;;;;;;7.90;4.97;;;;;;;;;;5049935;28;20041;-61
2022/04/30 13:21:32;;;;;;;9.18;5.68;;;;;;;;;;5050004;28;20033;-61
2022/04/30 13:23:58;;;;;;;10.00;5.03;;;;;;;;;;5049181;28;20037;-61
2022/04/30 13:26:24;;;;;;;8.75;5.15;;;;;;;;;;5047543;28;20037;-61
2022/04/30 13:28:50;;;;;;;9.90;5.20;;;;;;;;;;5045249;28;20152;-61
2022/04/30 13:31:16;;;;;;;14.60;6.53;;;;;;;;;;5054102;22;20052;-59
2022/04/30 13:33:51;;;;;;;10.52;5.28;;;;;;;;;;5049146;28;20041;-59
2022/04/30 13:36:17;;;;;;;7.65;5.70;;;;;;;;;;5029595;28;20076;-59
2022/04/30 13:38:45;;;;;;;8.90;5.05;;;;;;;;;;5050287;28;20076;-59
2022/04/30 13:41:11;;;;;;;9.32;4.90;;;;;;;;;;5034174;28;20049;-59
2022/04/30 13:43:37;;;;;;;7.55;4.85;;;;;;;;;;5048741;28;20710;-60
2022/04/30 13:46:03;;;;;;;7.03;4.47;;;;;;;;;;5043360;28;20040;-60
2022/04/30 13:48:29;;;;;;;7.78;4.78;;;;;;;;;;5047027;28;20158;-60
2022/04/30 13:50:55;;;;;;;9.07;4.97;;;;;;;;;;5051394;28;20121;-60
2022/04/30 13:53:21;;;;;;;8.00;5.20;;;;;;;;;;5050864;28;20043;-60
2022/04/30 13:55:47;;;;;;;7.18;4.85;;;;;;;;;;5033135;28;20116;-60
2022/04/30 13:58:13;;;;;;;7.30;4.50;;;;;;;;;;5052151;28;20053;-60
2022/04/30 14:00:40;;;;;;;6.88;4.40;;;;;;;;;;5031992;28;20053;-60
2022/04/30 14:03:06;;;;;;;7.10;4.85;;;;;;;;;;5047596;28;20040;-60
2022/04/30 14:05:33;;;;;;;5.97;4.35;;;;;;;;;;5047102;28;20041;-60
2022/04/30 14:07:59;;;;;;;7.35;4.68;;;;;;;;;;5032861;28;20441;-60
2022/04/30 14:10:28;;;;;;;7.75;4.65;;;;;;;;;;5049162;28;20025;-59
2022/04/30 14:14:55;;;;;;;7.35;5.00;;;;;;;;;;5058219;28;20033;-60
2022/04/30 14:15:43;;;;;;;7.90;5.03;;;;;;;;;;5047325;28;20123;-60
2022/04/30 14:18:16;;;;;;;6.47;4.45;;;;;;;;;;5050660;28;20040;-59
2022/04/30 14:20:43;;;;;;;6.60;4.65;;;;;;;;;;5054918;28;20036;-60
2022/04/30 14:23:11;;;;;;;7.72;4.47;;;;;;;;;;5046237;28;20056;-60
2022/04/30 14:25:37;;;;;;;7.90;4.50;;;;;;;;;;5047190;28;20041;-59
2022/04/30 14:28:03;;;;;;;7.35;4.60;;;;;;;;;;5048448;28;20087;-59
2022/04/30 14:30:29;;;;;;;8.63;4.80;;;;;;;;;;5054687;28;20037;-60
2022/04/30 14:32:55;;;;;;;6.45;4.47;;;;;;;;;;5054076;28;20036;-60
2022/04/30 14:35:21;;;;;;;7.65;4.28;;;;;;;;;;5054364;28;20123;-59
2022/04/30 14:37:47;;;;;;;7.82;4.38;;;;;;;;;;5050826;28;20751;-59
2022/04/30 14:40:15;;;;;;;7.55;4.72;;;;;;;;;;5049839;28;20067;-60
2022/04/30 14:42:41;;;;;;;7.80;4.53;;;;;;;;;;5050810;28;20068;-60
2022/04/30 14:45:07;;;;;;;6.63;4.35;;;;;;;;;;5030712;28;20566;-60
2022/04/30 14:47:33;;;;;;;7.95;4.40;;;;;;;;;;5052705;28;20036;-60
2022/04/30 14:49:59;;;;;;;9.05;4.47;;;;;;;;;;5048611;28;20499;-61
2022/04/30 14:52:26;;;;;;;6.57;4.35;;;;;;;;;;5050857;28;20056;-61
2022/04/30 14:54:52;;;;;;;6.97;3.97;;;;;;;;;;5043501;28;20430;-60
2022/04/30 14:57:18;;;;;;;6.55;3.97;;;;;;;;;;5051081;28;20064;-61
2022/04/30 14:59:44;;;;;;;6.15;3.75;;;;;;;;;;5029761;28;20040;-61
2022/04/30 15:02:10;;;;;;;7.03;4.05;;;;;;;;;;5033788;28;20032;-60
2022/04/30 15:04:36;;;;;;;6.47;4.82;;;;;;;;;;5055526;28;20081;-61
2022/04/30 15:07:03;;;;;;;6.18;4.68;;;;;;;;;;5055794;28;20037;-61
2022/04/30 15:09:29;;;;;;;8.80;4.65;;;;;;;;;;5055035;28;20044;-61
2022/04/30 15:11:55;;;;;;;6.50;4.10;;;;;;;;;;5055865;28;20049;-61
2022/04/30 15:14:21;;;;;;;7.53;4.55;;;;;;;;;;5054430;28;20094;-61
2022/04/30 15:16:47;;;;;;;5.75;4.35;;;;;;;;;;5052967;28;20040;-62
2022/04/30 15:19:14;;;;;;;6.50;4.13;;;;;;;;;;5051730;28;20033;-61
2022/04/30 15:21:39;;;;;;;8.40;4.30;;;;;;;;;;5056108;28;20033;-61